Dunlo, PA (15930)

12:12 PM EDT on October 24, 2014 (GMT -0400)
Fifty Acre Road, Adams Twp | Change Station
CLOSE
Current Station
Personal Weather Station
Location: Johnstown, PA
Elevation: 2122 ft
Nearby Weather Stations

Elev 2122 ft 40.31 °N, 78.81 °W | Updated 34 seconds ago

Mostly Cloudy
Mostly Cloudy
50.5 °F
Feels Like 50.5 °F
N
6.0
Wind Variable Wind from West
Gusts 11.0 mph

Today
High -- | Low -- °F
--% Chance of Precip.
Yesterday
High -- | Low -- °F
Precip. -- in
7:35 AM 6:22 PM
New Moon, 1% visible
Pressure 30.08 in
Visibility 10.0 miles
Clouds Few 1800 ft
Dew Point 39 °F
Humidity 65%
Rainfall 0.00 in
Snow Depth Not available.
UV 4 out of 12
Pollen 1.20 out of 12
Air Quality Not available.
Flu Activity Sporadic
METAR KJST 241554Z AUTO 27008KT 10SM FEW018 08/03 A3005 RMK AO2 SLP185 T00830033

More Conditions Fewer Conditions

Pressure 30.08 in
Visibility 10.0 miles
Clouds Few 1800 ft
Dew Point 39 °F
Humidity 65%
Rainfall 0.00 in
Snow Depth Not available.
UV 4 out of 12
Pollen 1.20 out of 12
Air Quality Not available.
Flu Activity Sporadic
METAR KJST 241554Z AUTO 27008KT 10SM FEW018 08/03 A3005 RMK AO2 SLP185 T00830033

More Conditions Fewer Conditions

10-Day Weather Forecast

Almanac

Astronomy

Oct. 24, 2014 Rise Set
Actual Time 7:35 AM EDT 6:22 PM EDT
Civil Twilight 7:07 AM EDT 6:49 PM EDT
Nautical Twilight 6:35 AM EDT 7:21 PM EDT
Astronomical Twilight 6:04 AM EDT 7:53 PM EDT
Moon 8:12 AM EDT 7:00 PM EDT
Length of Visible Light 11h 42m
Length of Day
10h 46m
Tomorrow will be 2m 27s shorter.
New Moon, 1% of the Moon is Illuminated
Today
New Moon
Oct 30
First Quarter
Nov 6
Full
Nov 14
Last Quarter
Nov 22
New

Today's Extremes

State Highs State Lows

Community

WunderPhotos

Upload Photos

1,764,600 photos uploaded!

WunderBlogs® & News

Nearby

Snow Depth

Station Depth Elevation
No new snow has been reported.

Earthquake Activity

City Distance Mag. Time & Date
No recent earthquake activity has been reported nearby.
Minimum magnitude displayed is 2.5.

Coastal Water Temperatures

Place Temperature
No Stations Reporting

Nearby Weather Stations